sensor_id;sensor_type;location;lat;lon;timestamp;temperature;humidity
70079;DHT22;57451;52.496;13.456;2023-09-18T00:01:34;20.50;63.20
70079;DHT22;57451;52.496;13.456;2023-09-18T00:04:02;20.40;64.20
70079;DHT22;57451;52.496;13.456;2023-09-18T00:06:30;20.40;63.70
70079;DHT22;57451;52.496;13.456;2023-09-18T00:08:57;20.40;63.20
70079;DHT22;57451;52.496;13.456;2023-09-18T00:11:24;20.40;63.80
70079;DHT22;57451;52.496;13.456;2023-09-18T00:13:52;20.30;63.80
70079;DHT22;57451;52.496;13.456;2023-09-18T00:16:21;20.30;64.40
70079;DHT22;57451;52.496;13.456;2023-09-18T00:18:48;20.30;64.60
70079;DHT22;57451;52.496;13.456;2023-09-18T00:21:16;20.30;64.50
70079;DHT22;57451;52.496;13.456;2023-09-18T00:23:44;20.30;64.00
70079;DHT22;57451;52.496;13.456;2023-09-18T00:26:11;20.30;64.70
70079;DHT22;57451;52.496;13.456;2023-09-18T00:28:41;20.20;64.80
70079;DHT22;57451;52.496;13.456;2023-09-18T00:31:09;20.20;65.10
70079;DHT22;57451;52.496;13.456;2023-09-18T00:33:38;20.20;65.40
70079;DHT22;57451;52.496;13.456;2023-09-18T00:36:06;20.10;65.00
70079;DHT22;57451;52.496;13.456;2023-09-18T00:38:33;20.10;65.60
70079;DHT22;57451;52.496;13.456;2023-09-18T00:41:01;20.10;64.80
70079;DHT22;57451;52.496;13.456;2023-09-18T00:43:28;20.10;65.10
70079;DHT22;57451;52.496;13.456;2023-09-18T00:45:55;20.10;64.40
70079;DHT22;57451;52.496;13.456;2023-09-18T00:48:23;20.10;64.90
70079;DHT22;57451;52.496;13.456;2023-09-18T00:50:51;20.10;65.40
70079;DHT22;57451;52.496;13.456;2023-09-18T00:53:21;20.00;65.30
70079;DHT22;57451;52.496;13.456;2023-09-18T00:55:50;20.00;65.30
70079;DHT22;57451;52.496;13.456;2023-09-18T00:58:20;20.00;65.50
70079;DHT22;57451;52.496;13.456;2023-09-18T01:00:48;20.00;65.90
70079;DHT22;57451;52.496;13.456;2023-09-18T01:03:19;19.90;65.90
70079;DHT22;57451;52.496;13.456;2023-09-18T01:05:47;19.90;65.90
70079;DHT22;57451;52.496;13.456;2023-09-18T01:08:15;19.90;66.10
70079;DHT22;57451;52.496;13.456;2023-09-18T01:10:53;19.90;65.30
70079;DHT22;57451;52.496;13.456;2023-09-18T01:13:30;19.80;65.20
70079;DHT22;57451;52.496;13.456;2023-09-18T01:16:05;19.80;65.70
70079;DHT22;57451;52.496;13.456;2023-09-18T01:18:34;19.80;66.30
70079;DHT22;57451;52.496;13.456;2023-09-18T01:21:02;19.80;66.20
70079;DHT22;57451;52.496;13.456;2023-09-18T01:23:30;19.80;66.30
70079;DHT22;57451;52.496;13.456;2023-09-18T01:25:58;19.70;66.20
70079;DHT22;57451;52.496;13.456;2023-09-18T01:28:25;19.70;66.50
70079;DHT22;57451;52.496;13.456;2023-09-18T01:30:52;19.70;66.40
70079;DHT22;57451;52.496;13.456;2023-09-18T01:33:21;19.70;65.20
70079;DHT22;57451;52.496;13.456;2023-09-18T01:35:50;19.70;65.80
70079;DHT22;57451;52.496;13.456;2023-09-18T01:38:19;19.70;65.60
70079;DHT22;57451;52.496;13.456;2023-09-18T01:40:48;19.60;65.90
70079;DHT22;57451;52.496;13.456;2023-09-18T01:43:16;19.60;66.50
70079;DHT22;57451;52.496;13.456;2023-09-18T01:45:43;19.60;65.80
70079;DHT22;57451;52.496;13.456;2023-09-18T01:48:11;19.60;66.10
70079;DHT22;57451;52.496;13.456;2023-09-18T01:50:38;19.60;66.40
70079;DHT22;57451;52.496;13.456;2023-09-18T01:53:07;19.50;65.50
70079;DHT22;57451;52.496;13.456;2023-09-18T01:55:35;19.50;65.90
70079;DHT22;57451;52.496;13.456;2023-09-18T01:58:03;19.50;66.60
70079;DHT22;57451;52.496;13.456;2023-09-18T02:00:31;19.40;66.20
70079;DHT22;57451;52.496;13.456;2023-09-18T02:02:59;19.40;66.70
70079;DHT22;57451;52.496;13.456;2023-09-18T02:05:46;19.40;66.80
70079;DHT22;57451;52.496;13.456;2023-09-18T02:08:14;19.40;66.60
70079;DHT22;57451;52.496;13.456;2023-09-18T02:10:41;19.30;67.30
70079;DHT22;57451;52.496;13.456;2023-09-18T02:13:10;19.30;67.60
70079;DHT22;57451;52.496;13.456;2023-09-18T02:15:38;19.30;67.20
70079;DHT22;57451;52.496;13.456;2023-09-18T02:18:08;19.30;67.10
70079;DHT22;57451;52.496;13.456;2023-09-18T02:20:40;19.30;67.70
70079;DHT22;57451;52.496;13.456;2023-09-18T02:23:07;19.20;68.00
70079;DHT22;57451;52.496;13.456;2023-09-18T02:25:35;19.20;68.00
70079;DHT22;57451;52.496;13.456;2023-09-18T02:28:03;19.20;67.70
70079;DHT22;57451;52.496;13.456;2023-09-18T02:30:31;19.20;67.80
70079;DHT22;57451;52.496;13.456;2023-09-18T02:32:59;19.20;67.80
70079;DHT22;57451;52.496;13.456;2023-09-18T02:35:27;19.20;67.80
70079;DHT22;57451;52.496;13.456;2023-09-18T02:37:54;19.10;67.40
70079;DHT22;57451;52.496;13.456;2023-09-18T02:40:21;19.10;66.90
70079;DHT22;57451;52.496;13.456;2023-09-18T02:42:49;19.10;67.70
70079;DHT22;57451;52.496;13.456;2023-09-18T02:45:16;19.10;67.50
70079;DHT22;57451;52.496;13.456;2023-09-18T02:47:45;19.10;67.80
70079;DHT22;57451;52.496;13.456;2023-09-18T02:50:13;19.00;67.80
70079;DHT22;57451;52.496;13.456;2023-09-18T02:52:40;19.00;68.10
70079;DHT22;57451;52.496;13.456;2023-09-18T02:55:08;19.00;67.60
70079;DHT22;57451;52.496;13.456;2023-09-18T02:57:37;19.00;68.40
70079;DHT22;57451;52.496;13.456;2023-09-18T03:00:06;18.90;67.70
70079;DHT22;57451;52.496;13.456;2023-09-18T03:02:33;18.90;68.30
70079;DHT22;57451;52.496;13.456;2023-09-18T03:05:03;18.90;67.90
70079;DHT22;57451;52.496;13.456;2023-09-18T03:07:31;18.90;67.60
70079;DHT22;57451;52.496;13.456;2023-09-18T03:09:58;18.90;67.60
70079;DHT22;57451;52.496;13.456;2023-09-18T03:12:26;18.90;67.60
70079;DHT22;57451;52.496;13.456;2023-09-18T03:14:53;18.80;68.10
70079;DHT22;57451;52.496;13.456;2023-09-18T03:17:21;18.80;68.30
70079;DHT22;57451;52.496;13.456;2023-09-18T03:19:48;18.80;68.00
70079;DHT22;57451;52.496;13.456;2023-09-18T03:22:17;18.80;67.90
70079;DHT22;57451;52.496;13.456;2023-09-18T03:24:45;18.80;67.50
70079;DHT22;57451;52.496;13.456;2023-09-18T03:27:13;18.70;67.30
70079;DHT22;57451;52.496;13.456;2023-09-18T03:29:40;18.70;68.00
70079;DHT22;57451;52.496;13.456;2023-09-18T03:32:08;18.70;68.20
70079;DHT22;57451;52.496;13.456;2023-09-18T03:34:40;18.70;67.70
70079;DHT22;57451;52.496;13.456;2023-09-18T03:37:09;18.70;68.40
70079;DHT22;57451;52.496;13.456;2023-09-18T03:39:38;18.60;68.10
70079;DHT22;57451;52.496;13.456;2023-09-18T03:42:06;18.60;68.20
70079;DHT22;57451;52.496;13.456;2023-09-18T03:44:33;18.60;68.20
70079;DHT22;57451;52.496;13.456;2023-09-18T03:47:01;18.60;67.60
70079;DHT22;57451;52.496;13.456;2023-09-18T03:49:28;18.50;67.70
70079;DHT22;57451;52.496;13.456;2023-09-18T03:51:55;18.50;68.10
70079;DHT22;57451;52.496;13.456;2023-09-18T03:54:23;18.50;69.00
70079;DHT22;57451;52.496;13.456;2023-09-18T03:56:52;18.50;68.50
70079;DHT22;57451;52.496;13.456;2023-09-18T03:59:19;18.50;69.40
70079;DHT22;57451;52.496;13.456;2023-09-18T04:01:46;18.50;69.10
70079;DHT22;57451;52.496;13.456;2023-09-18T04:04:14;18.50;69.80
70079;DHT22;57451;52.496;13.456;2023-09-18T04:06:42;18.50;69.40
70079;DHT22;57451;52.496;13.456;2023-09-18T04:09:10;18.50;69.40
70079;DHT22;57451;52.496;13.456;2023-09-18T04:11:37;18.50;69.00
70079;DHT22;57451;52.496;13.456;2023-09-18T04:14:06;18.40;69.10
70079;DHT22;57451;52.496;13.456;2023-09-18T04:16:34;18.40;69.10
70079;DHT22;57451;52.496;13.456;2023-09-18T04:19:03;18.40;69.00
70079;DHT22;57451;52.496;13.456;2023-09-18T04:21:30;18.40;70.10
70079;DHT22;57451;52.496;13.456;2023-09-18T04:23:58;18.40;69.00
70079;DHT22;57451;52.496;13.456;2023-09-18T04:26:26;18.30;69.90
70079;DHT22;57451;52.496;13.456;2023-09-18T04:28:58;18.30;70.50
70079;DHT22;57451;52.496;13.456;2023-09-18T04:31:27;18.30;70.10
70079;DHT22;57451;52.496;13.456;2023-09-18T04:33:55;18.30;69.00
70079;DHT22;57451;52.496;13.456;2023-09-18T04:36:23;18.30;69.10
70079;DHT22;57451;52.496;13.456;2023-09-18T04:38:51;18.30;69.70
70079;DHT22;57451;52.496;13.456;2023-09-18T04:41:18;18.30;69.70
70079;DHT22;57451;52.496;13.456;2023-09-18T04:43:46;18.30;69.80
70079;DHT22;57451;52.496;13.456;2023-09-18T04:46:13;18.30;69.90
70079;DHT22;57451;52.496;13.456;2023-09-18T04:48:42;18.20;69.30
70079;DHT22;57451;52.496;13.456;2023-09-18T04:51:10;18.20;69.00
70079;DHT22;57451;52.496;13.456;2023-09-18T04:53:39;18.20;69.20
70079;DHT22;57451;52.496;13.456;2023-09-18T04:56:08;18.20;70.00
70079;DHT22;57451;52.496;13.456;2023-09-18T04:58:37;18.20;70.50
70079;DHT22;57451;52.496;13.456;2023-09-18T05:01:05;18.20;69.30
70079;DHT22;57451;52.496;13.456;2023-09-18T05:03:37;18.20;69.90
70079;DHT22;57451;52.496;13.456;2023-09-18T05:06:10;18.20;69.40
70079;DHT22;57451;52.496;13.456;2023-09-18T05:08:38;18.20;69.90
70079;DHT22;57451;52.496;13.456;2023-09-18T05:11:06;18.10;68.90
70079;DHT22;57451;52.496;13.456;2023-09-18T05:13:34;18.20;69.60
70079;DHT22;57451;52.496;13.456;2023-09-18T05:16:01;18.10;69.20
70079;DHT22;57451;52.496;13.456;2023-09-18T05:18:30;18.10;69.60
70079;DHT22;57451;52.496;13.456;2023-09-18T05:20:58;18.20;70.50
70079;DHT22;57451;52.496;13.456;2023-09-18T05:23:27;18.20;70.80
70079;DHT22;57451;52.496;13.456;2023-09-18T05:25:54;18.20;70.80
70079;DHT22;57451;52.496;13.456;2023-09-18T05:28:22;18.20;70.70
70079;DHT22;57451;52.496;13.456;2023-09-18T05:30:49;18.20;70.00
70079;DHT22;57451;52.496;13.456;2023-09-18T05:33:16;18.20;71.00
70079;DHT22;57451;52.496;13.456;2023-09-18T05:35:44;18.20;70.90
70079;DHT22;57451;52.496;13.456;2023-09-18T05:38:13;18.20;71.60
70079;DHT22;57451;52.496;13.456;2023-09-18T05:40:42;18.30;71.90
70079;DHT22;57451;52.496;13.456;2023-09-18T05:43:11;18.30;71.70
70079;DHT22;57451;52.496;13.456;2023-09-18T05:45:39;18.30;71.60
70079;DHT22;57451;52.496;13.456;2023-09-18T05:48:07;18.40;71.80
70079;DHT22;57451;52.496;13.456;2023-09-18T05:50:36;18.40;71.70
70079;DHT22;57451;52.496;13.456;2023-09-18T05:53:04;18.40;71.20
70079;DHT22;57451;52.496;13.456;2023-09-18T05:55:32;18.50;71.50
70079;DHT22;57451;52.496;13.456;2023-09-18T05:58:01;18.60;71.30
70079;DHT22;57451;52.496;13.456;2023-09-18T06:00:31;18.60;71.10
70079;DHT22;57451;52.496;13.456;2023-09-18T06:02:59;18.70;70.90
70079;DHT22;57451;52.496;13.456;2023-09-18T06:05:27;18.80;70.90
70079;DHT22;57451;52.496;13.456;2023-09-18T06:07:55;18.80;70.90
70079;DHT22;57451;52.496;13.456;2023-09-18T06:10:22;18.80;70.90
70079;DHT22;57451;52.496;13.456;2023-09-18T06:12:51;18.90;70.80
70079;DHT22;57451;52.496;13.456;2023-09-18T06:15:19;18.90;70.40
70079;DHT22;57451;52.496;13.456;2023-09-18T06:17:47;19.00;70.30
70079;DHT22;57451;52.496;13.456;2023-09-18T06:20:14;19.00;70.40
70079;DHT22;57451;52.496;13.456;2023-09-18T06:22:43;19.10;70.10
70079;DHT22;57451;52.496;13.456;2023-09-18T06:25:10;19.20;70.20
70079;DHT22;57451;52.496;13.456;2023-09-18T06:27:38;19.20;69.80
70079;DHT22;57451;52.496;13.456;2023-09-18T06:30:06;19.30;69.70
70079;DHT22;57451;52.496;13.456;2023-09-18T06:32:35;19.40;69.50
70079;DHT22;57451;52.496;13.456;2023-09-18T06:35:05;19.40;69.10
70079;DHT22;57451;52.496;13.456;2023-09-18T06:37:32;19.50;70.20
70079;DHT22;57451;52.496;13.456;2023-09-18T06:40:00;19.50;69.70
70079;DHT22;57451;52.496;13.456;2023-09-18T06:42:31;19.60;69.50
70079;DHT22;57451;52.496;13.456;2023-09-18T06:44:58;19.70;69.40
70079;DHT22;57451;52.496;13.456;2023-09-18T06:47:26;19.70;69.30
70079;DHT22;57451;52.496;13.456;2023-09-18T06:50:00;19.80;68.90
70079;DHT22;57451;52.496;13.456;2023-09-18T06:52:32;19.80;68.90
70079;DHT22;57451;52.496;13.456;2023-09-18T06:54:59;19.90;68.60
70079;DHT22;57451;52.496;13.456;2023-09-18T06:57:27;19.90;68.30
70079;DHT22;57451;52.496;13.456;2023-09-18T06:59:54;20.00;68.30
70079;DHT22;57451;52.496;13.456;2023-09-18T07:02:22;20.20;68.30
70079;DHT22;57451;52.496;13.456;2023-09-18T07:04:49;20.30;68.40
70079;DHT22;57451;52.496;13.456;2023-09-18T07:07:18;20.40;68.00
70079;DHT22;57451;52.496;13.456;2023-09-18T07:09:52;20.50;67.40
70079;DHT22;57451;52.496;13.456;2023-09-18T07:12:32;20.60;67.00
70079;DHT22;57451;52.496;13.456;2023-09-18T07:15:00;20.70;67.00
70079;DHT22;57451;52.496;13.456;2023-09-18T07:17:30;20.80;66.90
70079;DHT22;57451;52.496;13.456;2023-09-18T07:19:59;20.90;66.60
70079;DHT22;57451;52.496;13.456;2023-09-18T07:22:28;21.00;66.30
70079;DHT22;57451;52.496;13.456;2023-09-18T07:24:57;21.10;66.10
70079;DHT22;57451;52.496;13.456;2023-09-18T07:27:25;21.20;66.10
70079;DHT22;57451;52.496;13.456;2023-09-18T07:29:55;21.30;65.70
70079;DHT22;57451;52.496;13.456;2023-09-18T07:32:23;21.40;65.50
70079;DHT22;57451;52.496;13.456;2023-09-18T07:35:06;21.50;65.60
70079;DHT22;57451;52.496;13.456;2023-09-18T07:37:35;21.60;65.80
70079;DHT22;57451;52.496;13.456;2023-09-18T07:40:04;21.70;65.70
70079;DHT22;57451;52.496;13.456;2023-09-18T07:42:31;21.80;65.50
70079;DHT22;57451;52.496;13.456;2023-09-18T07:44:58;21.90;64.40
70079;DHT22;57451;52.496;13.456;2023-09-18T07:47:26;21.90;64.60
70079;DHT22;57451;52.496;13.456;2023-09-18T07:49:53;22.00;63.90
70079;DHT22;57451;52.496;13.456;2023-09-18T07:52:21;22.00;63.80
70079;DHT22;57451;52.496;13.456;2023-09-18T07:54:50;22.10;63.90
70079;DHT22;57451;52.496;13.456;2023-09-18T07:57:18;22.20;63.20
70079;DHT22;57451;52.496;13.456;2023-09-18T07:59:46;22.20;63.00
70079;DHT22;57451;52.496;13.456;2023-09-18T08:02:14;22.30;62.80
70079;DHT22;57451;52.496;13.456;2023-09-18T08:04:41;22.40;62.90
70079;DHT22;57451;52.496;13.456;2023-09-18T08:07:10;22.50;62.60
70079;DHT22;57451;52.496;13.456;2023-09-18T08:09:37;22.60;62.60
70079;DHT22;57451;52.496;13.456;2023-09-18T08:12:08;22.70;62.30
70079;DHT22;57451;52.496;13.456;2023-09-18T08:14:36;22.80;62.40
70079;DHT22;57451;52.496;13.456;2023-09-18T08:17:04;22.90;62.80
70079;DHT22;57451;52.496;13.456;2023-09-18T08:19:34;22.90;61.30
70079;DHT22;57451;52.496;13.456;2023-09-18T08:22:03;23.00;61.00
70079;DHT22;57451;52.496;13.456;2023-09-18T08:24:33;23.10;61.30
70079;DHT22;57451;52.496;13.456;2023-09-18T08:27:00;23.20;60.70
70079;DHT22;57451;52.496;13.456;2023-09-18T08:29:29;23.40;60.70
70079;DHT22;57451;52.496;13.456;2023-09-18T08:31:56;23.40;61.00
70079;DHT22;57451;52.496;13.456;2023-09-18T08:34:24;23.60;60.20
70079;DHT22;57451;52.496;13.456;2023-09-18T08:36:55;23.60;59.90
70079;DHT22;57451;52.496;13.456;2023-09-18T08:39:22;23.80;60.40
70079;DHT22;57451;52.496;13.456;2023-09-18T08:41:51;23.90;60.40
70079;DHT22;57451;52.496;13.456;2023-09-18T08:44:24;24.10;59.50
70079;DHT22;57451;52.496;13.456;2023-09-18T08:46:55;24.20;59.10
70079;DHT22;57451;52.496;13.456;2023-09-18T08:49:24;24.30;59.10
70079;DHT22;57451;52.496;13.456;2023-09-18T08:51:54;24.50;58.40
70079;DHT22;57451;52.496;13.456;2023-09-18T08:54:22;24.70;57.60
70079;DHT22;57451;52.496;13.456;2023-09-18T08:56:51;24.90;57.60
70079;DHT22;57451;52.496;13.456;2023-09-18T08:59:21;25.10;57.10
70079;DHT22;57451;52.496;13.456;2023-09-18T09:01:49;25.30;56.30
70079;DHT22;57451;52.496;13.456;2023-09-18T09:04:17;25.50;55.00
70079;DHT22;57451;52.496;13.456;2023-09-18T09:06:45;25.70;55.60
70079;DHT22;57451;52.496;13.456;2023-09-18T09:09:12;25.90;54.90
70079;DHT22;57451;52.496;13.456;2023-09-18T09:11:48;26.10;54.40
70079;DHT22;57451;52.496;13.456;2023-09-18T09:14:16;26.40;54.80
70079;DHT22;57451;52.496;13.456;2023-09-18T09:16:50;26.60;53.80
70079;DHT22;57451;52.496;13.456;2023-09-18T09:19:28;26.70;52.80
70079;DHT22;57451;52.496;13.456;2023-09-18T09:21:57;26.90;53.50
70079;DHT22;57451;52.496;13.456;2023-09-18T09:24:39;27.20;53.00
70079;DHT22;57451;52.496;13.456;2023-09-18T09:27:07;27.50;52.30
70079;DHT22;57451;52.496;13.456;2023-09-18T09:29:35;27.70;51.40
70079;DHT22;57451;52.496;13.456;2023-09-18T09:32:12;27.90;51.20
70079;DHT22;57451;52.496;13.456;2023-09-18T09:34:42;28.20;51.00
70079;DHT22;57451;52.496;13.456;2023-09-18T09:37:10;28.40;50.40
70079;DHT22;57451;52.496;13.456;2023-09-18T09:39:50;28.50;49.30
70079;DHT22;57451;52.496;13.456;2023-09-18T09:42:19;28.60;49.20
70079;DHT22;57451;52.496;13.456;2023-09-18T09:45:01;28.60;49.40
70079;DHT22;57451;52.496;13.456;2023-09-18T09:47:33;28.60;50.30
70079;DHT22;57451;52.496;13.456;2023-09-18T09:50:07;28.70;48.80
70079;DHT22;57451;52.496;13.456;2023-09-18T09:52:41;28.60;48.90
70079;DHT22;57451;52.496;13.456;2023-09-18T09:55:25;28.60;48.60
70079;DHT22;57451;52.496;13.456;2023-09-18T09:57:54;28.50;49.40
70079;DHT22;57451;52.496;13.456;2023-09-18T10:00:26;28.40;49.70
70079;DHT22;57451;52.496;13.456;2023-09-18T10:02:58;28.40;48.20
70079;DHT22;57451;52.496;13.456;2023-09-18T10:05:30;28.30;48.70
70079;DHT22;57451;52.496;13.456;2023-09-18T10:07:59;28.20;49.40
70079;DHT22;57451;52.496;13.456;2023-09-18T10:10:32;28.10;49.30
70079;DHT22;57451;52.496;13.456;2023-09-18T10:13:04;28.00;49.00
70079;DHT22;57451;52.496;13.456;2023-09-18T10:15:34;27.90;49.90
70079;DHT22;57451;52.496;13.456;2023-09-18T10:18:14;27.80;50.10
70079;DHT22;57451;52.496;13.456;2023-09-18T10:20:51;27.80;50.80
70079;DHT22;57451;52.496;13.456;2023-09-18T10:23:28;27.70;50.60
70079;DHT22;57451;52.496;13.456;2023-09-18T10:26:01;27.60;50.70
70079;DHT22;57451;52.496;13.456;2023-09-18T10:28:30;27.60;51.00
70079;DHT22;57451;52.496;13.456;2023-09-18T10:30:59;27.50;50.00
70079;DHT22;57451;52.496;13.456;2023-09-18T10:33:28;27.40;50.80
70079;DHT22;57451;52.496;13.456;2023-09-18T10:35:58;27.30;50.70
70079;DHT22;57451;52.496;13.456;2023-09-18T10:38:28;27.30;49.00
70079;DHT22;57451;52.496;13.456;2023-09-18T10:40:57;27.10;49.80
70079;DHT22;57451;52.496;13.456;2023-09-18T10:43:25;27.00;49.30
70079;DHT22;57451;52.496;13.456;2023-09-18T10:45:53;27.00;49.80
70079;DHT22;57451;52.496;13.456;2023-09-18T10:48:21;27.00;49.60
70079;DHT22;57451;52.496;13.456;2023-09-18T10:50:50;26.90;49.40
70079;DHT22;57451;52.496;13.456;2023-09-18T10:53:19;26.90;50.00
70079;DHT22;57451;52.496;13.456;2023-09-18T10:55:49;26.90;49.80
70079;DHT22;57451;52.496;13.456;2023-09-18T10:58:24;26.90;49.60
70079;DHT22;57451;52.496;13.456;2023-09-18T11:00:54;26.80;49.30
70079;DHT22;57451;52.496;13.456;2023-09-18T11:03:23;26.80;49.50
70079;DHT22;57451;52.496;13.456;2023-09-18T11:06:03;26.80;50.00
70079;DHT22;57451;52.496;13.456;2023-09-18T11:08:33;26.80;50.10
70079;DHT22;57451;52.496;13.456;2023-09-18T11:11:03;26.80;50.40
70079;DHT22;57451;52.496;13.456;2023-09-18T11:13:40;26.80;50.80
70079;DHT22;57451;52.496;13.456;2023-09-18T11:16:17;26.80;50.60
70079;DHT22;57451;52.496;13.456;2023-09-18T11:18:53;26.70;50.30
70079;DHT22;57451;52.496;13.456;2023-09-18T11:21:25;26.60;50.40
70079;DHT22;57451;52.496;13.456;2023-09-18T11:24:00;26.60;50.60
70079;DHT22;57451;52.496;13.456;2023-09-18T11:26:31;26.50;51.00
70079;DHT22;57451;52.496;13.456;2023-09-18T11:28:59;26.50;51.20
70079;DHT22;57451;52.496;13.456;2023-09-18T11:31:46;26.40;51.00
70079;DHT22;57451;52.496;13.456;2023-09-18T11:34:21;26.40;51.60
70079;DHT22;57451;52.496;13.456;2023-09-18T11:36:49;26.40;51.60
70079;DHT22;57451;52.496;13.456;2023-09-18T11:39:34;26.40;52.10
70079;DHT22;57451;52.496;13.456;2023-09-18T11:42:09;26.30;52.10
70079;DHT22;57451;52.496;13.456;2023-09-18T11:44:37;26.30;51.80
70079;DHT22;57451;52.496;13.456;2023-09-18T11:47:10;26.30;51.90
70079;DHT22;57451;52.496;13.456;2023-09-18T11:49:53;26.30;52.20
70079;DHT22;57451;52.496;13.456;2023-09-18T11:52:27;26.20;52.30
70079;DHT22;57451;52.496;13.456;2023-09-18T11:54:58;26.20;52.50
70079;DHT22;57451;52.496;13.456;2023-09-18T11:57:26;26.10;52.60
70079;DHT22;57451;52.496;13.456;2023-09-18T11:59:56;26.10;52.60
70079;DHT22;57451;52.496;13.456;2023-09-18T12:02:27;26.10;52.80
70079;DHT22;57451;52.496;13.456;2023-09-18T12:04:56;26.10;52.90
70079;DHT22;57451;52.496;13.456;2023-09-18T12:07:24;26.00;53.10
70079;DHT22;57451;52.496;13.456;2023-09-18T12:09:52;26.00;53.10
70079;DHT22;57451;52.496;13.456;2023-09-18T12:12:23;26.00;53.60
70079;DHT22;57451;52.496;13.456;2023-09-18T12:14:52;26.00;53.40
70079;DHT22;57451;52.496;13.456;2023-09-18T12:17:19;26.00;53.80
70079;DHT22;57451;52.496;13.456;2023-09-18T12:19:53;26.10;53.70
70079;DHT22;57451;52.496;13.456;2023-09-18T12:22:25;26.10;53.30
70079;DHT22;57451;52.496;13.456;2023-09-18T12:24:53;26.20;52.60
70079;DHT22;57451;52.496;13.456;2023-09-18T12:27:20;26.20;52.20
70079;DHT22;57451;52.496;13.456;2023-09-18T12:29:49;26.30;52.50
70079;DHT22;57451;52.496;13.456;2023-09-18T12:32:16;26.30;52.70
70079;DHT22;57451;52.496;13.456;2023-09-18T12:34:44;26.40;51.80
70079;DHT22;57451;52.496;13.456;2023-09-18T12:37:13;26.40;51.80
70079;DHT22;57451;52.496;13.456;2023-09-18T12:39:40;26.40;52.10
70079;DHT22;57451;52.496;13.456;2023-09-18T12:42:08;26.40;51.70
70079;DHT22;57451;52.496;13.456;2023-09-18T12:44:35;26.50;51.90
70079;DHT22;57451;52.496;13.456;2023-09-18T12:47:05;26.50;51.90
70079;DHT22;57451;52.496;13.456;2023-09-18T12:49:32;26.50;51.60
70079;DHT22;57451;52.496;13.456;2023-09-18T12:52:02;26.50;51.80
70079;DHT22;57451;52.496;13.456;2023-09-18T12:54:37;26.40;51.60
70079;DHT22;57451;52.496;13.456;2023-09-18T12:57:05;26.40;52.20
70079;DHT22;57451;52.496;13.456;2023-09-18T12:59:34;26.40;52.30
70079;DHT22;57451;52.496;13.456;2023-09-18T13:02:04;26.40;51.60
70079;DHT22;57451;52.496;13.456;2023-09-18T13:04:32;26.40;51.10
70079;DHT22;57451;52.496;13.456;2023-09-18T13:07:13;26.40;51.20
70079;DHT22;57451;52.496;13.456;2023-09-18T13:09:41;26.30;51.40
70079;DHT22;57451;52.496;13.456;2023-09-18T13:12:09;26.30;51.90
70079;DHT22;57451;52.496;13.456;2023-09-18T13:14:58;26.30;51.70
70079;DHT22;57451;52.496;13.456;2023-09-18T13:17:47;26.30;51.80
70079;DHT22;57451;52.496;13.456;2023-09-18T13:20:21;26.30;52.00
70079;DHT22;57451;52.496;13.456;2023-09-18T13:22:52;26.30;52.10
70079;DHT22;57451;52.496;13.456;2023-09-18T13:25:22;26.20;52.30
70079;DHT22;57451;52.496;13.456;2023-09-18T13:27:50;26.20;52.80
70079;DHT22;57451;52.496;13.456;2023-09-18T13:30:18;26.10;52.80
70079;DHT22;57451;52.496;13.456;2023-09-18T13:32:49;26.10;52.80
70079;DHT22;57451;52.496;13.456;2023-09-18T13:35:18;26.10;52.70
70079;DHT22;57451;52.496;13.456;2023-09-18T13:37:46;26.10;52.70
70079;DHT22;57451;52.496;13.456;2023-09-18T13:40:13;26.00;52.80
70079;DHT22;57451;52.496;13.456;2023-09-18T13:42:40;26.00;53.10
70079;DHT22;57451;52.496;13.456;2023-09-18T13:45:09;26.00;53.60
70079;DHT22;57451;52.496;13.456;2023-09-18T13:47:38;25.90;54.10
70079;DHT22;57451;52.496;13.456;2023-09-18T13:50:07;25.90;54.40
70079;DHT22;57451;52.496;13.456;2023-09-18T13:52:36;25.80;54.50
70079;DHT22;57451;52.496;13.456;2023-09-18T13:55:04;25.80;54.80
70079;DHT22;57451;52.496;13.456;2023-09-18T13:57:33;25.80;55.00
70079;DHT22;57451;52.496;13.456;2023-09-18T14:00:01;25.80;55.70
70079;DHT22;57451;52.496;13.456;2023-09-18T14:02:38;25.80;56.00
70079;DHT22;57451;52.496;13.456;2023-09-18T14:05:08;25.80;56.20
70079;DHT22;57451;52.496;13.456;2023-09-18T14:07:36;25.80;56.20
70079;DHT22;57451;52.496;13.456;2023-09-18T14:10:07;25.70;56.70
70079;DHT22;57451;52.496;13.456;2023-09-18T14:12:34;25.70;56.30
70079;DHT22;57451;52.496;13.456;2023-09-18T14:15:02;25.70;56.80
70079;DHT22;57451;52.496;13.456;2023-09-18T14:17:30;25.70;57.60
70079;DHT22;57451;52.496;13.456;2023-09-18T14:19:57;25.70;57.80
70079;DHT22;57451;52.496;13.456;2023-09-18T14:22:27;25.60;58.10
70079;DHT22;57451;52.496;13.456;2023-09-18T14:24:55;25.50;58.50
70079;DHT22;57451;52.496;13.456;2023-09-18T14:27:22;25.50;58.80
70079;DHT22;57451;52.496;13.456;2023-09-18T14:29:49;25.50;59.10
70079;DHT22;57451;52.496;13.456;2023-09-18T14:32:17;25.40;58.80
70079;DHT22;57451;52.496;13.456;2023-09-18T14:34:44;25.30;59.10
70079;DHT22;57451;52.496;13.456;2023-09-18T14:37:14;25.30;59.30
70079;DHT22;57451;52.496;13.456;2023-09-18T14:39:43;25.20;59.10
70079;DHT22;57451;52.496;13.456;2023-09-18T14:42:11;25.20;58.20
70079;DHT22;57451;52.496;13.456;2023-09-18T14:44:38;25.10;58.20
70079;DHT22;57451;52.496;13.456;2023-09-18T14:47:12;25.10;58.30
70079;DHT22;57451;52.496;13.456;2023-09-18T14:49:39;25.10;57.00
70079;DHT22;57451;52.496;13.456;2023-09-18T14:52:07;25.00;57.20
70079;DHT22;57451;52.496;13.456;2023-09-18T14:54:37;25.00;56.70
70079;DHT22;57451;52.496;13.456;2023-09-18T14:57:05;25.00;56.50
70079;DHT22;57451;52.496;13.456;2023-09-18T14:59:33;24.90;55.90
70079;DHT22;57451;52.496;13.456;2023-09-18T15:02:09;24.90;56.10
70079;DHT22;57451;52.496;13.456;2023-09-18T15:04:36;24.90;55.80
70079;DHT22;57451;52.496;13.456;2023-09-18T15:07:04;24.90;56.10
70079;DHT22;57451;52.496;13.456;2023-09-18T15:09:31;24.90;56.10
70079;DHT22;57451;52.496;13.456;2023-09-18T15:11:59;24.90;55.40
70079;DHT22;57451;52.496;13.456;2023-09-18T15:14:27;24.90;55.30
70079;DHT22;57451;52.496;13.456;2023-09-18T15:16:55;24.90;55.70
70079;DHT22;57451;52.496;13.456;2023-09-18T15:19:22;24.90;54.80
70079;DHT22;57451;52.496;13.456;2023-09-18T15:21:50;25.00;55.00
70079;DHT22;57451;52.496;13.456;2023-09-18T15:24:21;25.00;55.00
70079;DHT22;57451;52.496;13.456;2023-09-18T15:26:48;25.00;54.80
70079;DHT22;57451;52.496;13.456;2023-09-18T15:29:15;25.00;54.90